Latest Weather Observations for Nuriootpa

IDS60901

Issued at 6:21 pm CST Wednesday 19 September 2018 (issued every 10 minutes, with the page automatically refreshed every 10 minutes)

About weather observations | Map of Adelaide area stations | Latest observations for Adelaide area | Other Formats
Station Details ID: 023373 Name: NURIOOTPA PIRSA Lat: -34.48 Lon: 139.01 Height: 275.0 m
Data from the previous 72 hours. | See also: Recent months at Nuriootpa
Date/Time
CST
Temp
°C
App
Temp
°C
Dew
Point
°C
Rel
Hum
%
Delta-T
°C
Wind Press
QNH
hPa
Press
MSL
hPa
Rain since
9am
mm
Dir  Spd
km/h
Gust
km/h
Spd
kts
Gust
kts
19/06:00pm 9.5 5.3 5.8 78 1.7 WSW 17 22 9 12 1019.6 1019.6 0.2
19/05:30pm 10.8 5.3 3.9 62 3.1 WSW 22 33 12 18 1019.2 1019.2 0.2
19/05:00pm 11.9 5.1 3.2 55 3.9 W 28 39 15 21 1018.9 1018.9 0.2
19/04:30pm 11.8 6.6 3.6 57 3.7 WSW 20 32 11 17 1018.6 1018.5 0.2
19/04:00pm 12.4 5.8 2.1 49 4.5 W 26 37 14 20 1018.5 1018.4 0.2
19/03:30pm 12.0 5.8 2.4 52 4.2 W 24 33 13 18 1018.6 1018.5 0.2
19/03:00pm 11.1 5.1 3.5 59 3.4 WSW 24 33 13 18 1018.9 1018.9 0.2
19/02:30pm 12.0 6.0 3.3 55 3.9 WSW 24 37 13 20 1018.7 1018.7 0.2
19/02:00pm 12.2 6.0 4.1 57 3.7 WSW 26 37 14 20 1018.7 1018.7 0.2
19/01:30pm 12.2 6.2 3.3 54 4.0 WSW 24 33 13 18 1018.9 1018.9 0.2
19/01:00pm 13.3 7.7 3.4 51 4.5 WSW 22 32 12 17 1018.7 1018.7 0.2
19/12:30pm 12.3 6.1 2.3 50 4.4 W 24 33 13 18 1018.9 1018.9 0.2
19/12:00pm 12.4 6.7 3.0 52 4.2 WSW 22 35 12 19 1018.9 1018.9 0.2
19/11:30am 11.2 6.0 5.4 67 2.7 W 22 32 12 17 1019.2 1019.2 0.2
19/11:00am 11.2 5.9 4.9 65 2.9 WSW 22 32 12 17 1019.2 1019.2 0.2
19/10:30am 9.4 4.5 4.0 69 2.4 WSW 19 24 10 13 1019.3 1019.3 0.2
19/10:00am 10.1 5.1 4.8 69 2.4 W 20 28 11 15 1019.2 1019.2 0.0
19/09:30am 10.0 5.7 5.2 72 2.2 W 17 24 9 13 1019.2 1019.2 0.0
19/09:00am 8.8 5.0 5.8 81 1.4 W 15 26 8 14 1019.1 1019.1 1.2
19/08:30am 7.0 6.0 5.4 89 0.7 CALM 0 0 0 0 1019.0 1019.0 1.2
19/08:00am 6.5 4.2 4.9 89 0.7 SW 6 13 3 7 1018.8 1018.8 1.2
19/07:30am 5.8 3.5 4.9 94 0.4 WSW 6 9 3 5 1018.2 1018.1 1.0
19/07:00am 5.4 3.5 4.9 97 0.2 E 4 6 2 3 1017.7 1017.7 1.0
19/06:30am 4.5 1.9 4.3 99 0.1 E 7 9 4 5 1017.3 1017.3 1.0
19/06:00am 3.8 2.4 3.3 97 0.2 CALM 0 0 0 0 1016.9 1016.9 1.0
19/05:30am 4.6 2.0 4.1 97 0.2 WSW 7 11 4 6 1016.7 1016.7 1.0
19/05:00am 2.9 0.1 2.1 94 0.3 ESE 6 9 3 5 1016.2 1016.2 0.6
19/04:30am 3.2 0.3 2.5 95 0.3 SE 7 7 4 4 1016.1 1016.1 0.6
19/04:00am 3.8 2.3 2.8 93 0.4 CALM 0 0 0 0 1015.8 1015.8 0.6
19/03:30am 4.3 1.1 3.1 92 0.5 SSW 9 11 5 6 1015.6 1015.6 0.6
19/03:00am 5.3 1.1 3.9 91 0.6 W 15 19 8 10 1015.4 1015.3 0.6
19/02:30am 5.7 0.2 4.1 89 0.7 W 22 30 12 16 1015.4 1015.3 0.6
19/02:00am 5.9 0.8 4.3 89 0.7 WNW 20 28 11 15 1015.6 1015.6 0.6
19/01:30am 5.6 1.5 4.5 93 0.5 WNW 15 20 8 11 1015.8 1015.8 0.6
19/01:00am 5.8 1.8 4.7 93 0.5 W 15 19 8 10 1016.0 1016.0 0.6
19/12:30am 5.9 1.5 4.5 91 0.6 W 17 22 9 12 1016.1 1016.1 0.6
19/12:00am 6.4 1.6 4.8 89 0.7 W 19 28 10 15 1016.2 1016.2 0.6
 
Date/Time
CST
Temp
°C
App
Temp
°C
Dew
Point
°C
Rel
Hum
%
Delta-T
°C
Wind Press
QNH
hPa
Press
MSL
hPa
Rain since
9am
mm
Dir  Spd
km/h
Gust
km/h
Spd
kts
Gust
kts
18/11:30pm 6.4 1.7 5.1 91 0.6 W 19 28 10 15 1016.1 1016.1 0.6
18/11:00pm 6.7 1.4 5.1 89 0.7 W 22 30 12 16 1016.2 1016.2 0.6
18/10:30pm 6.7 1.9 5.4 91 0.6 W 20 28 11 15 1016.2 1016.2 0.6
18/10:09pm 6.7 -0.7 5.1 89 0.7 WSW 33 54 18 29 1016.3 1016.3 0.4
18/10:03pm 7.3 0.8 4.8 84 1.1 W 28 54 15 29 1016.2 1016.2 0.2
18/10:00pm 7.6 1.7 3.7 76 1.7 W 24 32 13 17 1016.0 1016.0 0.0
18/09:30pm 7.6 2.3 3.2 74 1.9 W 20 32 11 17 1015.9 1015.9 0.0
18/09:00pm 8.2 2.7 2.0 65 2.6 W 20 32 11 17 1015.8 1015.8 0.0
18/08:30pm 8.3 3.4 4.0 74 1.9 WSW 19 26 10 14 1015.6 1015.6 0.0
18/08:00pm 8.4 2.4 3.1 69 2.3 W 24 33 13 18 1015.5 1015.4 0.0
18/07:30pm 8.7 3.2 2.1 63 2.8 W 20 30 11 16 1015.0 1014.9 0.0
18/07:00pm 9.6 2.6 1.8 58 3.3 W 28 43 15 23 1014.6 1014.5 0.0
18/06:30pm 10.0 3.6 1.2 54 3.7 W 24 35 13 19 1014.1 1014.1 0.0
18/06:00pm 10.7 3.6 1.3 52 4.0 W 28 43 15 23 1013.6 1013.6 0.0
18/05:30pm 11.6 4.1 1.3 49 4.4 W 30 46 16 25 1013.2 1013.2 0.0
18/05:00pm 12.3 3.4 0.8 45 4.9 WSW 37 57 20 31 1012.8 1012.8 0.0
18/04:49pm 12.7 3.9 1.4 46 4.9 WSW 37 57 20 31 1012.6 1012.6 0.0
18/04:30pm 12.7 4.0 2.3 49 4.6 W 37 54 20 29 1012.4 1012.3 0.0
18/04:11pm 13.1 6.1 6.0 62 3.4 W 32 50 17 27 1012.3 1012.2 0.0
18/04:00pm 12.7 5.5 5.8 63 3.3 W 33 48 18 26 1012.3 1012.2 0.0
18/03:42pm 11.8 4.9 6.6 70 2.5 W 32 50 17 27 1012.4 1012.3 0.0
18/03:30pm 12.2 4.5 5.4 63 3.2 W 35 44 19 24 1012.5 1012.5 0.0
18/03:00pm 12.4 4.9 6.1 65 3.0 WSW 35 61 19 33 1012.4 1012.3 0.0
18/02:37pm 14.3 6.8 4.2 50 4.7 W 33 52 18 28 1012.1 1012.0 0.0
18/02:30pm 13.7 4.9 3.7 51 4.6 W 39 52 21 28 1012.2 1012.1 0.0
18/02:02pm 13.6 6.4 5.9 59 3.7 W 33 57 18 31 1012.2 1012.1 0.0
18/02:00pm 14.0 7.0 5.9 58 3.9 W 32 44 17 24 1012.2 1012.1 0.0
18/01:30pm 14.1 6.1 3.7 49 4.8 W 35 57 19 31 1012.3 1012.2 0.0
18/01:12pm 14.9 7.3 3.1 45 5.4 W 32 50 17 27 1012.5 1012.5 0.0
18/01:00pm 14.5 6.6 2.2 43 5.5 WNW 33 44 18 24 1012.4 1012.3 0.0
18/12:30pm 15.0 7.1 2.1 41 5.8 W 33 52 18 28 1012.7 1012.7 0.0
18/12:19pm 15.0 7.3 2.1 41 5.8 W 32 50 17 27 1012.8 1012.8 0.0
18/12:00pm 14.6 7.0 0.8 39 6.0 WNW 30 43 16 23 1013.0 1013.0 0.0
18/11:30am 13.2 5.0 0.6 42 5.4 W 33 44 18 24 1013.1 1013.1 0.0
18/11:14am 13.5 5.7 1.7 44 5.2 W 32 50 17 27 1013.2 1013.2 0.0
18/11:00am 12.8 4.7 1.2 45 5.0 WNW 33 46 18 25 1013.6 1013.6 0.0
18/10:30am 12.6 5.7 4.4 57 3.8 WSW 30 46 16 25 1013.0 1013.0 0.0
18/10:00am 11.8 4.6 5.2 64 3.1 W 32 43 17 23 1013.2 1013.2 0.0
18/09:30am 11.4 4.7 5.7 68 2.7 WSW 30 43 16 23 1013.3 1013.3 0.0
18/09:11am 11.2 5.3 7.7 79 1.7 W 28 46 15 25 1013.4 1013.4 0.0
18/09:00am 11.4 5.6 8.0 79 1.7 W 28 39 15 21 1013.3 1013.3 0.0
18/08:30am 11.5 7.0 11.5 100 0.0 W 26 37 14 20 1012.9 1012.9 0.0
18/08:00am 11.2 5.9 11.2 100 0.0 W 30 41 16 22 1012.9 1012.9 0.0
18/07:30am 10.4 5.2 10.4 100 0.0 W 28 39 15 21 1012.6 1012.6 0.0
18/07:00am 10.7 5.6 10.7 100 0.0 WNW 28 35 15 19 1012.3 1012.2 0.0
18/06:30am 10.3 5.9 10.3 100 0.0 WNW 24 33 13 18 1012.0 1011.9 0.0
18/06:00am 10.2 6.5 10.2 100 0.0 WNW 20 26 11 14 1012.0 1011.9 0.0
18/05:30am 9.6 5.7 9.6 100 0.0 WNW 20 28 11 15 1011.9 1011.8 0.0
18/05:00am 8.5 6.5 8.5 100 0.0 NW 9 17 5 9 1011.9 1011.8 0.0
18/04:30am 8.6 7.0 8.6 100 0.0 NW 7 11 4 6 1011.8 1011.7 0.0
18/04:00am 9.1 6.1 9.1 100 0.0 SW 15 19 8 10 1011.5 1011.4 0.0
18/03:30am 11.3 8.5 11.3 100 0.0 W 17 24 9 13 1011.0 1010.9 0.0
18/03:00am 11.8 9.5 11.8 100 0.0 N 15 28 8 15 1009.9 1009.9 0.0
18/02:30am 11.7 9.4 11.7 100 0.0 N 15 24 8 13 1010.0 1010.0 0.0
18/02:00am 11.5 9.1 11.5 100 0.0 N 15 22 8 12 1010.5 1010.4 0.0
18/01:30am 10.5 8.6 10.5 100 0.0 N 11 17 6 9 1010.8 1010.7 0.0
18/01:00am 10.8 9.0 10.8 100 0.0 NNE 11 17 6 9 1011.0 1010.9 0.0
18/12:30am 11.3 9.2 11.3 100 0.0 N 13 19 7 10 1011.4 1011.3 0.0
18/12:00am 11.7 9.4 11.7 100 0.0 N 15 22 8 12 1011.4 1011.3 0.0
 
Date/Time
CST
Temp
°C
App
Temp
°C
Dew
Point
°C
Rel
Hum
%
Delta-T
°C
Wind Press
QNH
hPa
Press
MSL
hPa
Rain since
9am
mm
Dir  Spd
km/h
Gust
km/h
Spd
kts
Gust
kts
17/11:30pm 12.7 10.3 12.7 100 0.0 N 17 26 9 14 1011.9 1011.8 0.0
17/11:00pm 13.0 10.7 13.0 100 0.0 N 17 28 9 15 1012.3 1012.2 0.0
17/10:30pm 12.1 10.3 12.1 100 0.0 N 13 19 7 10 1012.8 1012.8 0.0
17/10:00pm 10.9 9.1 10.9 100 0.0 N 11 15 6 8 1013.1 1013.1 0.0
17/09:30pm 9.7 7.6 9.7 100 0.0 NE 11 13 6 7 1013.4 1013.4 0.0
17/09:00pm 9.8 8.1 9.8 100 0.0 NE 9 11 5 6 1013.5 1013.5 0.0
17/08:30pm 11.0 9.2 11.0 100 0.0 NE 11 13 6 7 1013.4 1013.4 0.0
17/08:00pm 11.4 10.5 11.4 100 0.0 N 7 9 4 5 1013.6 1013.6 0.0
17/07:30pm 13.0 12.6 13.0 100 0.0 N 7 9 4 5 1013.4 1013.4 0.0
17/07:00pm 14.3 14.3 14.3 100 0.0 N 7 9 4 5 1013.3 1013.3 0.0
17/06:30pm 15.0 14.5 15.0 100 0.0 WNW 11 15 6 8 1013.5 1013.5 0.0
17/06:00pm 16.9 17.2 16.9 100 0.0 NNW 11 17 6 9 1013.3 1013.3 0.0
17/05:30pm 17.9 18.6 17.9 100 0.0 NNW 11 17 6 9 1013.2 1013.2 0.0
17/05:00pm 18.5 18.3 18.5 100 0.0 N 17 28 9 15 1013.0 1013.0 0.0
17/04:30pm 18.7 18.2 18.7 100 0.0 NNW 19 30 10 16 1013.1 1013.1 0.0
17/04:00pm 18.9 18.3 18.9 100 0.0 NNW 20 37 11 20 1013.4 1013.4 0.0
17/03:30pm 19.3 18.1 19.3 100 0.0 NNW 24 39 13 21 1013.5 1013.5 0.0
17/03:00pm 19.3 18.9 19.3 100 0.0 NNW 20 35 11 19 1013.8 1013.8 0.0
17/02:30pm 18.8 17.4 18.8 100 0.0 NNW 24 41 13 22 1014.3 1014.2 0.0
17/02:00pm 19.4 18.9 19.2 99 0.1 NNW 20 37 11 20 1014.9 1014.8 0.0
17/01:30pm 18.7 11.8 -2.8 23 9.0 NNW 24 39 13 21 1015.4 1015.3 0.0
17/01:00pm 17.9 10.7 -5.1 20 9.1 NW 24 41 13 22 1016.2 1016.2 0.0
17/12:30pm 17.5 11.0 -2.8 25 8.4 N 22 35 12 19 1016.9 1016.9 0.0
17/12:00pm 17.3 11.1 -3.3 24 8.4 NNW 20 33 11 18 1017.6 1017.6 0.0
17/11:30am 16.2 10.2 -1.4 30 7.4 N 20 32 11 17 1018.4 1018.3 0.0
17/11:00am 16.3 9.9 -2.0 28 7.6 N 22 37 12 20 1019.0 1019.0 0.0
17/10:30am 15.6 8.7 -2.6 28 7.4 NNW 24 39 13 21 1019.5 1019.5 0.0
17/10:00am 14.7 7.4 -2.7 30 7.0 N 26 43 14 23 1019.9 1019.9 0.0
17/09:30am 14.4 9.2 0.4 38 6.0 N 17 28 9 15 1020.1 1020.1 0.0
17/09:00am 12.9 8.4 1.9 47 4.8 N 15 26 8 14 1020.5 1020.5 0.0
17/08:30am 10.9 7.2 2.4 55 3.7 NNE 11 17 6 9 1020.6 1020.6 0.0
17/08:00am 8.8 6.3 4.6 75 1.9 NE 7 9 4 5 1020.7 1020.7 0.0
17/07:30am 6.0 3.2 2.9 80 1.3 NE 7 9 4 5 1020.7 1020.7 0.0
17/07:00am 3.1 0.0 1.3 88 0.7 NE 7 9 4 5 1020.7 1020.7 0.0
17/06:30am 1.0 -2.1 -0.1 92 0.4 NE 6 7 3 4 1020.4 1020.4 0.0
17/06:00am 1.4 -2.3 0.1 91 0.5 ENE 9 11 5 6 1020.3 1020.3 0.0
17/05:30am 2.4 -1.1 1.1 91 0.5 NE 9 11 5 6 1020.5 1020.5 0.0
17/05:00am 2.3 -0.8 1.5 94 0.3 NE 7 11 4 6 1020.5 1020.5 0.0
17/04:30am 1.3 -2.3 0.5 94 0.3 NE 9 11 5 6 1020.6 1020.6 0.0
17/04:00am 0.2 - - - - NE 7 11 4 6 1020.8 1020.8 0.0
17/03:30am 0.4 - - - - NNE 7 11 4 6 1020.8 1020.8 0.0
17/03:00am 0.4 - - - - NE 6 7 3 4 1020.9 1020.9 0.0
17/02:30am 0.4 - - - - NE 6 7 3 4 1021.3 1021.3 0.0
17/02:00am 0.5 -2.2 0.0 96 0.2 ENE 4 6 2 3 1021.5 1021.5 0.0
17/01:30am 0.9 -2.4 0.1 94 0.3 NE 7 11 4 6 1022.2 1022.2 0.0
17/01:00am 1.1 -2.0 0.3 94 0.3 NE 6 6 3 3 1022.4 1022.4 0.0
17/12:30am 1.8 -1.4 0.7 92 0.4 NE 7 9 4 5 1022.6 1022.6 0.0
17/12:00am 1.9 -1.7 0.8 92 0.4 NE 9 11 5 6 1022.9 1022.9 0.0
 
Date/Time
CST
Temp
°C
App
Temp
°C
Dew
Point
°C
Rel
Hum
%
Delta-T
°C
Wind Press
QNH
hPa
Press
MSL
hPa
Rain since
9am
mm
Dir  Spd
km/h
Gust
km/h
Spd
kts
Gust
kts
16/11:30pm 2.1 -1.0 1.1 93 0.4 NE 7 9 4 5 1023.3 1023.3 0.0
16/11:00pm 2.2 0.4 1.4 94 0.3 CALM 0 0 0 0 1023.7 1023.7 0.0
16/10:30pm 2.3 -0.6 1.3 93 0.4 ENE 6 6 3 3 1024.0 1024.0 0.0
16/10:00pm 3.5 0.7 2.0 90 0.6 NNE 6 7 3 4 1024.2 1024.2 0.0
16/09:30pm 3.6 0.8 2.1 90 0.6 NE 6 7 3 4 1024.5 1024.5 0.0
16/09:00pm 4.4 1.5 2.4 87 0.8 NE 7 7 4 4 1024.5 1024.5 0.0
16/08:30pm 4.5 2.2 2.5 87 0.8 ENE 4 7 2 4 1024.5 1024.5 0.0
16/08:00pm 5.4 3.8 2.5 81 1.2 CALM 0 6 0 3 1024.2 1024.2 0.0
16/07:30pm 7.0 4.3 2.7 74 1.8 SSW 6 7 3 4 1023.9 1023.9 0.0
16/07:00pm 8.2 5.3 2.8 69 2.3 SW 7 9 4 5 1023.7 1023.7 0.0
16/06:30pm 9.0 6.2 3.0 66 2.6 WSW 7 9 4 5 1023.6 1023.6 0.0

Latest Capital City Observations: Canberra | Sydney | Melbourne | Brisbane | Adelaide | Perth | Hobart | Darwin

Other Formats:

Comma delimited format used in spreadsheet applications
http://www.bom.gov.au/fwo/IDS60901/IDS60901.94681.axf

JavaScript Object Notation format (JSON) in row-major order
http://www.bom.gov.au/fwo/IDS60901/IDS60901.94681.json